Terminal Aerodrome Forecast
Issued by NWS

Current Version | Previous Version | Text Only | Print | Product List | Glossary On
Versions: 1 2 3 4 5 6 7 8 9 10 11 12 13 14
000
FTUS46 KPDT 221700
TAFYKM
TAF
KYKM 221728Z 2218/2318 27006KT P6SM -SHRA BKN080 OVC120
     FM222300 VRB05KT P6SM VCSH SCT070 BKN120
     FM230200 24006KT P6SM BKN060 OVC100
     FM230600 26005KT P6SM BKN150
     FM231200 26007KT P6SM OVC080
     FM231500 28009KT P6SM VCTS BKN060CB BKN080CB=

USA.gov is the U.S. government's official web portal to all federal, state and local government web resources and services.